createdAt,value
2022-08-25T00:02:04.711Z,100.00
2022-08-25T00:05:08.092Z,100.00
2022-08-25T00:08:12.310Z,100.00
2022-08-25T00:11:21.346Z,100.00
2022-08-25T00:14:28.472Z,100.00
2022-08-25T00:17:31.276Z,100.00
2022-08-25T00:20:33.782Z,100.00
2022-08-25T00:23:36.513Z,100.00
2022-08-25T00:26:42.435Z,100.00
2022-08-25T00:29:45.333Z,100.00
2022-08-25T00:32:50.510Z,100.00
2022-08-25T00:36:01.101Z,100.00
2022-08-25T00:39:04.979Z,100.00
2022-08-25T00:42:11.918Z,100.00
2022-08-25T00:45:18.897Z,100.00
2022-08-25T00:48:21.717Z,100.00
2022-08-25T00:51:38.946Z,100.00
2022-08-25T00:54:46.927Z,100.00
2022-08-25T00:58:00.360Z,100.00
2022-08-25T01:01:04.165Z,100.00
2022-08-25T01:04:07.672Z,100.00
2022-08-25T01:07:17.413Z,100.00
2022-08-25T01:10:22.761Z,100.00
2022-08-25T01:13:41.549Z,100.00
2022-08-25T01:16:44.803Z,100.00
2022-08-25T01:19:47.833Z,100.00
2022-08-25T01:22:55.075Z,100.00
2022-08-25T01:26:09.837Z,100.00
2022-08-25T01:29:21.346Z,100.00
2022-08-25T01:32:24.884Z,100.00
2022-08-25T01:35:27.337Z,100.00
2022-08-25T01:38:30.050Z,100.00
2022-08-25T01:42:05.490Z,100.00
2022-08-25T01:45:10.338Z,100.00
2022-08-25T01:48:14.340Z,100.00
2022-08-25T01:51:20.615Z,100.00
2022-08-25T01:54:23.461Z,100.00
2022-08-25T01:57:26.247Z,100.00
2022-08-25T02:00:28.860Z,100.00
2022-08-25T02:03:32.610Z,100.00
2022-08-25T02:06:35.301Z,100.00
2022-08-25T02:09:39.180Z,100.00
2022-08-25T02:12:41.822Z,100.00
2022-08-25T02:15:49.519Z,100.00
2022-08-25T02:18:53.117Z,100.00
2022-08-25T02:21:55.970Z,100.00
2022-08-25T02:24:59.190Z,100.00
2022-08-25T02:28:02.174Z,100.00
2022-08-25T02:31:05.809Z,100.00
2022-08-25T02:34:09.900Z,100.00
2022-08-25T02:37:12.887Z,100.00
2022-08-25T02:40:15.749Z,100.00
2022-08-25T02:43:18.243Z,100.00
2022-08-25T02:46:22.442Z,100.00
2022-08-25T02:49:25.036Z,100.00
2022-08-25T02:52:27.896Z,100.00
2022-08-25T02:55:30.415Z,100.00
2022-08-25T02:58:38.776Z,100.00
2022-08-25T03:01:41.446Z,100.00
2022-08-25T03:04:44.411Z,100.00
2022-08-25T03:07:46.937Z,100.00
2022-08-25T03:10:50.391Z,100.00
2022-08-25T03:13:56.379Z,100.00
2022-08-25T03:16:59.144Z,100.00
2022-08-25T03:20:01.673Z,100.00
2022-08-25T03:23:05.996Z,100.00
2022-08-25T03:26:27.579Z,100.00
2022-08-25T03:29:34.002Z,100.00
2022-08-25T03:32:37.425Z,100.00
2022-08-25T03:35:40.689Z,100.00
2022-08-25T03:38:43.363Z,100.00
2022-08-25T03:41:47.299Z,100.00
2022-08-25T03:44:49.711Z,100.00
2022-08-25T03:47:54.158Z,100.00
2022-08-25T03:50:56.718Z,100.00
2022-08-25T03:54:01.175Z,100.00
2022-08-25T03:57:04.095Z,100.00
2022-08-25T04:00:09.847Z,100.00
2022-08-25T04:03:14.111Z,100.00
2022-08-25T04:06:18.604Z,100.00
2022-08-25T04:09:21.760Z,100.00
2022-08-25T04:12:25.102Z,100.00
2022-08-25T04:15:30.284Z,100.00
2022-08-25T04:18:34.330Z,100.00
2022-08-25T04:21:38.969Z,100.00
2022-08-25T04:24:41.758Z,100.00
2022-08-25T04:27:44.333Z,100.00
2022-08-25T04:30:51.456Z,100.00
2022-08-25T04:33:54.990Z,100.00
2022-08-25T04:37:00.490Z,100.00
2022-08-25T04:40:03.964Z,100.00
2022-08-25T04:43:06.790Z,100.00
2022-08-25T04:46:12.736Z,100.00
2022-08-25T04:49:15.630Z,100.00
2022-08-25T04:52:18.098Z,100.00
2022-08-25T04:55:20.861Z,100.00
2022-08-25T04:58:23.497Z,100.00
2022-08-25T05:01:26.498Z,100.00
2022-08-25T05:04:29.732Z,100.00
2022-08-25T05:07:32.517Z,100.00
2022-08-25T05:10:39.894Z,100.00
2022-08-25T05:13:43.526Z,100.00
2022-08-25T05:16:49.622Z,100.00
2022-08-25T05:19:52.467Z,100.00
2022-08-25T05:22:54.939Z,100.00
2022-08-25T05:26:03.747Z,100.00
2022-08-25T05:29:06.926Z,100.00
2022-08-25T05:32:10.040Z,100.00
2022-08-25T05:35:12.900Z,100.00
2022-08-25T05:38:15.798Z,100.00
2022-08-25T05:41:26.521Z,100.00
2022-08-25T05:44:29.260Z,100.00
2022-08-25T05:47:34.116Z,100.00
2022-08-25T05:50:36.893Z,100.00
2022-08-25T05:53:42.254Z,100.00
2022-08-25T05:56:45.517Z,100.00
2022-08-25T05:59:47.986Z,100.00
2022-08-25T06:02:51.189Z,100.00
2022-08-25T06:05:54.121Z,100.00
2022-08-25T06:08:56.616Z,100.00
2022-08-25T06:11:59.472Z,100.00
2022-08-25T06:15:03.480Z,100.00
2022-08-25T06:18:07.305Z,100.00
2022-08-25T06:21:12.866Z,100.00
2022-08-25T06:24:15.962Z,100.00
2022-08-25T06:27:18.869Z,100.00
2022-08-25T06:30:28.575Z,100.00
2022-08-25T06:33:32.253Z,100.00
2022-08-25T06:36:35.046Z,100.00
2022-08-25T06:39:37.558Z,100.00
2022-08-25T06:42:41.195Z,100.00
2022-08-25T06:45:44.202Z,100.00
2022-08-25T06:48:47.992Z,100.00
2022-08-25T06:51:50.695Z,100.00
2022-08-25T06:54:54.648Z,100.00
2022-08-25T06:57:57.241Z,95.08
2022-08-25T07:01:15.912Z,89.32
2022-08-25T07:04:22.774Z,88.36
2022-08-25T07:07:25.628Z,82.52
2022-08-25T07:10:48.068Z,83.22
2022-08-25T07:13:51.327Z,79.97
2022-08-25T07:16:53.825Z,78.21
2022-08-25T07:19:57.466Z,76.09
2022-08-25T07:23:00.394Z,76.15
2022-08-25T07:26:36.359Z,69.86
2022-08-25T07:29:42.242Z,65.97
2022-08-25T07:32:45.825Z,65.68
2022-08-25T07:35:48.416Z,62.75
2022-08-25T07:38:53.063Z,66.59
2022-08-25T07:41:58.420Z,66.41
2022-08-25T07:45:01.200Z,62.25
2022-08-25T07:48:12.076Z,59.38
2022-08-25T07:51:17.542Z,55.83
2022-08-25T07:54:20.592Z,58.33
2022-08-25T07:57:26.576Z,57.24
2022-08-25T08:00:30.933Z,58.83
2022-08-25T08:03:50.067Z,55.44
2022-08-25T08:06:53.779Z,51.91
2022-08-25T08:10:32.930Z,49.93
2022-08-25T08:13:20.069Z,48.07
2022-08-25T08:16:27.264Z,50.33
2022-08-25T08:19:29.916Z,49.34
2022-08-25T08:22:32.995Z,47.05
2022-08-25T08:25:35.492Z,45.06
2022-08-25T08:28:38.284Z,45.93
2022-08-25T08:31:40.896Z,42.80
2022-08-25T08:34:51.506Z,43.50
2022-08-25T08:37:54.298Z,44.09
2022-08-25T08:41:30.523Z,41.88
2022-08-25T08:44:45.317Z,43.89
2022-08-25T08:47:52.626Z,45.93
2022-08-25T08:51:15.113Z,45.02
2022-08-25T08:54:24.184Z,42.67
2022-08-25T08:57:29.067Z,41.30
2022-08-25T09:00:37.053Z,41.89
2022-08-25T09:03:44.350Z,38.12
2022-08-25T09:06:50.781Z,40.31
2022-08-25T09:09:54.068Z,41.02
2022-08-25T09:13:12.793Z,40.65
2022-08-25T09:16:54.888Z,38.50
2022-08-25T09:20:18.671Z,36.07
2022-08-25T09:23:33.961Z,38.41
2022-08-25T09:26:49.399Z,38.76
2022-08-25T09:30:01.892Z,37.73
2022-08-25T09:33:08.795Z,35.36
2022-08-25T09:36:11.603Z,35.50
2022-08-25T09:39:14.922Z,34.90
2022-08-25T09:42:23.919Z,34.72
2022-08-25T09:45:42.465Z,31.98
2022-08-25T09:48:55.564Z,29.46
2022-08-25T09:52:28.748Z,29.05
2022-08-25T09:55:34.466Z,35.58
2022-08-25T09:58:38.779Z,38.47
2022-08-25T10:02:06.391Z,39.67
2022-08-25T10:05:23.262Z,44.48
2022-08-25T10:08:30.361Z,44.68
2022-08-25T10:11:33.377Z,44.64
2022-08-25T10:14:44.588Z,46.29
2022-08-25T10:17:47.635Z,47.49
2022-08-25T10:21:07.515Z,48.53
2022-08-25T10:24:12.591Z,49.31
2022-08-25T10:27:52.699Z,50.33
2022-08-25T10:31:27.071Z,49.13
2022-08-25T10:34:55.470Z,48.84
2022-08-25T10:38:34.794Z,49.18
2022-08-25T10:41:44.800Z,50.11
2022-08-25T10:45:43.263Z,45.07
2022-08-25T10:49:08.234Z,38.76
2022-08-25T10:52:57.921Z,35.63
2022-08-25T10:56:12.658Z,32.96
2022-08-25T10:59:41.651Z,33.34
2022-08-25T11:02:58.588Z,29.28
2022-08-25T11:06:17.781Z,28.16
2022-08-25T11:09:25.667Z,28.57
2022-08-25T11:12:39.126Z,30.25
2022-08-25T11:16:15.538Z,31.42
2022-08-25T11:19:31.245Z,27.46
2022-08-25T11:22:42.687Z,25.40
2022-08-25T11:25:52.410Z,27.36
2022-08-25T11:29:18.635Z,30.76
2022-08-25T11:32:24.838Z,27.62
2022-08-25T11:35:39.134Z,27.22
2022-08-25T11:38:51.345Z,27.29
2022-08-25T11:42:19.145Z,26.79
2022-08-25T11:45:30.889Z,26.79
2022-08-25T11:48:56.253Z,25.45
2022-08-25T11:52:02.844Z,24.91
2022-08-25T11:55:23.381Z,21.54
2022-08-25T11:58:50.175Z,23.53
2022-08-25T12:01:55.730Z,25.00
2022-08-25T12:04:59.044Z,25.70
2022-08-25T12:08:26.296Z,23.29
2022-08-25T12:11:38.464Z,24.08
2022-08-25T12:14:46.377Z,22.78
2022-08-25T12:18:16.501Z,22.98
2022-08-25T12:21:32.611Z,20.74
2022-08-25T12:24:48.221Z,21.42
2022-08-25T12:27:59.978Z,20.61
2022-08-25T12:31:17.806Z,21.23
2022-08-25T12:34:20.265Z,18.61
2022-08-25T12:37:30.027Z,21.00
2022-08-25T12:40:38.239Z,22.68
2022-08-25T12:43:44.863Z,23.88
2022-08-25T12:46:47.475Z,23.44
2022-08-25T12:49:53.811Z,24.53
2022-08-25T12:53:08.674Z,22.10
2022-08-25T12:56:32.448Z,21.39
2022-08-25T12:59:48.626Z,18.42
2022-08-25T13:03:34.093Z,20.60
2022-08-25T13:06:55.776Z,21.35
2022-08-25T13:10:35.060Z,18.86
2022-08-25T13:13:46.505Z,20.33
2022-08-25T13:16:58.536Z,21.90
2022-08-25T13:20:15.193Z,21.02
2022-08-25T13:23:25.103Z,20.18
2022-08-25T13:26:48.352Z,21.75
2022-08-25T13:29:58.330Z,21.21
2022-08-25T13:33:22.363Z,20.85
2022-08-25T13:36:51.877Z,20.95
2022-08-25T13:40:12.081Z,21.76
2022-08-25T13:43:18.153Z,19.29
2022-08-25T13:46:31.874Z,17.93
2022-08-25T13:49:39.819Z,21.89
2022-08-25T13:53:04.808Z,20.47
2022-08-25T13:56:23.956Z,17.72
2022-08-25T13:59:40.462Z,24.12
2022-08-25T14:02:52.109Z,22.69
2022-08-25T14:06:08.770Z,22.90
2022-08-25T14:09:18.423Z,22.92
2022-08-25T14:12:42.293Z,23.01
2022-08-25T14:15:47.966Z,28.76
2022-08-25T14:18:54.777Z,32.37
2022-08-25T14:22:03.054Z,31.82
2022-08-25T14:25:07.398Z,32.12
2022-08-25T14:28:16.168Z,35.61
2022-08-25T14:31:32.141Z,34.56
2022-08-25T14:34:37.197Z,33.31
2022-08-25T14:37:40.095Z,35.84
2022-08-25T14:40:43.854Z,39.45
2022-08-25T14:43:47.498Z,40.89
2022-08-25T14:46:54.977Z,42.44
2022-08-25T14:49:58.328Z,41.22
2022-08-25T14:53:01.919Z,41.90
2022-08-25T14:56:08.570Z,42.53
2022-08-25T14:59:13.479Z,43.19
2022-08-25T15:02:20.266Z,43.72
2022-08-25T15:05:29.082Z,43.25
2022-08-25T15:08:51.477Z,43.63
2022-08-25T15:11:56.723Z,44.23
2022-08-25T15:15:01.863Z,44.93
2022-08-25T15:18:06.276Z,44.79
2022-08-25T15:21:09.480Z,45.19
2022-08-25T15:24:17.556Z,45.63
2022-08-25T15:27:21.833Z,45.41
2022-08-25T15:30:31.007Z,45.95
2022-08-25T15:33:34.102Z,45.46
2022-08-25T15:36:37.142Z,46.11
2022-08-25T15:39:43.339Z,46.09
2022-08-25T15:42:47.109Z,46.93
2022-08-25T15:45:50.901Z,46.56
2022-08-25T15:48:53.555Z,47.05
2022-08-25T15:51:56.525Z,47.09
2022-08-25T15:55:00.266Z,47.55
2022-08-25T15:58:03.182Z,47.74
2022-08-25T16:01:06.604Z,47.53
2022-08-25T16:04:12.708Z,47.94
2022-08-25T16:07:15.371Z,47.29
2022-08-25T16:10:18.288Z,47.36
2022-08-25T16:13:20.897Z,46.86
2022-08-25T16:16:27.152Z,47.67
2022-08-25T16:19:33.041Z,47.63
2022-08-25T16:22:35.886Z,48.30
2022-08-25T16:25:42.731Z,48.37
2022-08-25T16:28:49.917Z,48.15
2022-08-25T16:31:53.387Z,49.04
2022-08-25T16:34:58.462Z,49.43
2022-08-25T16:38:03.844Z,49.82
2022-08-25T16:41:11.285Z,50.57
2022-08-25T16:44:14.567Z,50.70
2022-08-25T16:47:17.839Z,52.34
2022-08-25T16:50:22.792Z,53.43
2022-08-25T16:53:45.089Z,54.42
2022-08-25T16:56:53.702Z,55.48
2022-08-25T16:59:58.901Z,56.05
2022-08-25T17:03:04.881Z,56.70
2022-08-25T17:06:07.835Z,57.57
2022-08-25T17:09:13.824Z,57.80
2022-08-25T17:12:26.442Z,58.50
2022-08-25T17:15:29.017Z,59.35
2022-08-25T17:18:32.032Z,59.94
2022-08-25T17:21:37.714Z,60.59
2022-08-25T17:24:42.485Z,60.74
2022-08-25T17:27:45.188Z,61.80
2022-08-25T17:30:48.548Z,61.80
2022-08-25T17:33:52.279Z,62.33
2022-08-25T17:36:55.731Z,62.67
2022-08-25T17:40:03.003Z,63.77
2022-08-25T17:43:09.232Z,64.36
2022-08-25T17:46:13.577Z,64.67
2022-08-25T17:49:17.930Z,65.81
2022-08-25T17:52:25.002Z,66.29
2022-08-25T17:55:28.508Z,66.95
2022-08-25T17:58:33.189Z,67.50
2022-08-25T18:01:40.783Z,67.59
2022-08-25T18:04:45.417Z,67.91
2022-08-25T18:07:48.061Z,68.82
2022-08-25T18:10:53.065Z,69.17
2022-08-25T18:13:55.995Z,70.75
2022-08-25T18:17:00.179Z,71.07
2022-08-25T18:20:06.262Z,71.70
2022-08-25T18:23:09.766Z,72.89
2022-08-25T18:26:13.153Z,72.61
2022-08-25T18:29:16.686Z,72.08
2022-08-25T18:32:20.612Z,72.81
2022-08-25T18:35:29.040Z,72.53
2022-08-25T18:38:50.289Z,73.85
2022-08-25T18:42:01.766Z,73.24
2022-08-25T18:45:06.147Z,73.66
2022-08-25T18:48:10.958Z,74.13
2022-08-25T18:51:14.693Z,74.89
2022-08-25T18:54:23.062Z,74.50
2022-08-25T18:57:26.846Z,75.26
2022-08-25T19:00:32.905Z,75.17
2022-08-25T19:03:35.307Z,74.35
2022-08-25T19:06:38.127Z,74.38
2022-08-25T19:09:40.652Z,73.70
2022-08-25T19:12:43.434Z,74.22
2022-08-25T19:15:46.891Z,74.69
2022-08-25T19:18:52.186Z,75.62
2022-08-25T19:21:55.035Z,74.98
2022-08-25T19:24:58.491Z,75.05
2022-08-25T19:28:01.081Z,75.39
2022-08-25T19:31:06.390Z,75.48
2022-08-25T19:34:13.681Z,75.67
2022-08-25T19:37:21.830Z,76.04
2022-08-25T19:40:26.981Z,76.06
2022-08-25T19:43:31.490Z,75.36
2022-08-25T19:46:46.897Z,75.53
2022-08-25T19:49:55.216Z,75.31
2022-08-25T19:52:58.004Z,74.96
2022-08-25T19:56:01.727Z,75.00
2022-08-25T19:59:04.589Z,75.74
2022-08-25T20:02:10.840Z,75.53
2022-08-25T20:05:14.192Z,75.64
2022-08-25T20:08:18.997Z,76.09
2022-08-25T20:11:33.392Z,76.68
2022-08-25T20:14:36.598Z,76.52
2022-08-25T20:17:43.326Z,76.52
2022-08-25T20:20:47.650Z,77.60
2022-08-25T20:24:10.077Z,77.81
2022-08-25T20:27:12.844Z,77.32
2022-08-25T20:30:22.404Z,77.68
2022-08-25T20:33:24.970Z,78.22
2022-08-25T20:36:28.157Z,78.74
2022-08-25T20:39:30.793Z,79.36
2022-08-25T20:42:33.676Z,78.13
2022-08-25T20:45:36.265Z,78.89
2022-08-25T20:48:39.339Z,79.11
2022-08-25T20:51:42.503Z,78.55
2022-08-25T20:54:46.935Z,78.70
2022-08-25T20:57:51.981Z,78.56
2022-08-25T21:00:54.925Z,77.97
2022-08-25T21:03:57.380Z,77.84
2022-08-25T21:07:01.087Z,78.42
2022-08-25T21:10:10.496Z,78.53
2022-08-25T21:13:17.100Z,78.61
2022-08-25T21:16:21.172Z,79.26
2022-08-25T21:19:29.988Z,79.62
2022-08-25T21:22:35.287Z,80.09
2022-08-25T21:25:42.257Z,81.47
2022-08-25T21:28:47.484Z,82.20
2022-08-25T21:31:51.095Z,82.43
2022-08-25T21:34:54.522Z,81.87
2022-08-25T21:37:57.750Z,82.96
2022-08-25T21:41:00.610Z,82.74
2022-08-25T21:44:03.822Z,83.64
2022-08-25T21:47:07.035Z,85.32
2022-08-25T21:50:11.916Z,86.67
2022-08-25T21:53:14.424Z,87.36
2022-08-25T21:56:22.413Z,88.74
2022-08-25T21:59:31.958Z,88.84
2022-08-25T22:02:34.777Z,90.57
2022-08-25T22:05:37.622Z,91.33
2022-08-25T22:08:41.693Z,91.17
2022-08-25T22:11:45.499Z,92.93
2022-08-25T22:14:48.138Z,94.03
2022-08-25T22:17:50.909Z,94.15
2022-08-25T22:20:54.520Z,95.47
2022-08-25T22:24:00.289Z,95.45
2022-08-25T22:27:02.842Z,96.27
2022-08-25T22:30:06.450Z,97.54
2022-08-25T22:33:09.537Z,98.51
2022-08-25T22:36:16.408Z,99.39
2022-08-25T22:39:19.134Z,99.97
2022-08-25T22:42:25.664Z,100.00
2022-08-25T22:45:28.420Z,99.89
2022-08-25T22:48:31.459Z,100.00
2022-08-25T22:51:34.177Z,99.91
2022-08-25T22:54:37.021Z,100.00
2022-08-25T22:57:40.706Z,100.00
2022-08-25T23:00:43.952Z,100.00
2022-08-25T23:03:47.696Z,100.00
2022-08-25T23:06:53.761Z,100.00
2022-08-25T23:10:03.125Z,100.00
2022-08-25T23:13:08.894Z,100.00
2022-08-25T23:16:14.269Z,100.00
2022-08-25T23:19:18.026Z,100.00
2022-08-25T23:22:21.059Z,100.00
2022-08-25T23:25:24.605Z,100.00
2022-08-25T23:28:27.230Z,100.00
2022-08-25T23:31:30.445Z,100.00
2022-08-25T23:34:38.220Z,100.00
2022-08-25T23:37:42.836Z,100.00
2022-08-25T23:40:47.873Z,100.00
2022-08-25T23:43:52.413Z,100.00
2022-08-25T23:46:55.408Z,100.00
2022-08-25T23:50:00.769Z,100.00
2022-08-25T23:53:03.560Z,100.00
2022-08-25T23:56:06.480Z,100.00
2022-08-25T23:59:09.386Z,100.00
